Meteo Giornale » Osservazioni meteo Italia » Milano-Linate

ore: 16:50 - Osservazioni Meteo Milano-Linate
Lat. 45° 26' N Lon. 9° 17' E Alt. 107 metri s.l.m.

sereno Europe/Rome

7 °C

Sereno

Temp. 24 Ore

-4 °C

9 °C

Est

7.4 Km/h

Dew point -6 °C

Umidità 38 %

Visibilità  10 Km

Il sole sorge alle ore 07:51

Il sole tramonta alle ore 17:17

Data e Ora Cielo e Fenomeni T °C DP °C Um. % Pres. hPa Vis. km Vento km/h
Oggi h: 16:50 sereno Sereno 7 -6 38 1027 10 E 7.4
Oggi h: 16:20 sereno Sereno 8 -6 36 1027 10 E 7.4
Oggi h: 15:50 sereno Sereno 9 -6 33 1027 10 E/SE 7.4
Oggi h: 15:20 sereno Sereno 9 -6 33 1027 10 S/SE 7.4
Oggi h: 14:50 sereno Sereno 9 -6 33 1027 10 SE 9.3
Oggi h: 14:20 sereno Sereno 9 -6 33 1027 10 SE 7.4
Oggi h: 13:50 sereno Sereno 8 -5 39 1027 10 SE 7.4
Oggi h: 13:20 sereno Sereno 8 -5 39 1028 10 N 5.5
Oggi h: 12:50 sereno Sereno 8 -5 39 1028 10 N 5.5
Oggi h: 12:20 sereno Sereno 7 -4 45 1029 10 N 5.5
Oggi h: 11:50 sereno Sereno 7 -3 48 1029 10 N 3.7
Oggi h: 11:20 sereno Sereno 6 -4 48 1030 10 N 3.7
Oggi h: 10:50 sereno Sereno 4 -2 64 1030 10 N 5.5
Oggi h: 10:20 sereno Sereno 2 -3 69 1030 10 N 3.7
Oggi h: 09:50 sereno Sereno 4 -2 64 1029 10 N 0
Oggi h: 09:20 sereno Sereno -0 -3 80 1029 8 N 1.8
Oggi h: 08:50 sereno Sereno -3 -4 92 1029 6 N 0
Oggi h: 08:20 foschia Foschia -3 -4 92 1029 4 N 1.8
Oggi h: 07:50 foschia Foschia -3 -4 92 1029 4 N 1.8
Oggi h: 07:20 foschia Foschia -4 -5 92 1028 5 N 0
Oggi h: 06:50 foschia Foschia -4 -5 92 1028 4 N 1.8
Oggi h: 06:20 foschia Foschia -3 -4 92 1028 4 N 0
Oggi h: 05:50 foschia Foschia -4 -5 92 1028 4 N 3.7
Oggi h: 05:20 foschia Foschia -4 -5 92 1028 4 N 0
Oggi h: 04:50 foschia Foschia -3 -4 92 1029 4 N 0
Oggi h: 04:20 foschia Foschia -3 -5 86 1029 4 N 3.7
Oggi h: 03:50 foschia Foschia -1 -4 80 1029 4 N 5.5
Oggi h: 03:20 foschia Foschia -2 -5 79 1029 4 N/NE 9.3
Oggi h: 02:50 foschia Foschia -2 -3 92 1029 4 N/NE 7.4
Oggi h: 02:20 foschia Foschia -2 -4 86 1029 4 N 7.4
Oggi h: 01:50 foschia Foschia -3 -4 92 1030 4 N 1.8
Oggi h: 01:20 foschia Foschia -3 -4 92 1029 4 N 0
Oggi h: 00:50 foschia Foschia -3 -4 92 1030 4 N 0
Oggi h: 00:20 foschia Foschia -3 -4 92 1030 4 N 0
Ieri h: 23:50 foschia Foschia -2 -3 92 1030 5 N 0
Ieri h: 23:20 foschia Foschia -2 -4 86 1030 5 N 0
Ieri h: 22:50 foschia Foschia -2 -4 86 1030 5 N 0
Ieri h: 22:20 foschia Foschia -1 -4 80 1030 5 N 3.7
Ieri h: 21:50 foschia Foschia -1 -4 80 1030 5 N 0
Ieri h: 21:20 sereno Sereno -1 -5 74 1030 6 N 0
Ieri h: 20:50 sereno Sereno -0 -4 74 1030 6 N 0
Ieri h: 20:20 sereno Sereno 0 -4 74 1029 8 N 0
Ieri h: 19:50 sereno Sereno 0 -3 80 1029 8 N 0
Ieri h: 19:20 sereno Sereno 0 -4 74 1029 8 N 0
Ieri h: 18:50 sereno Sereno 2 -2 74 1029 10 N 0
Ieri h: 18:20 sereno Sereno 2 -4 64 1029 10 N 0
Ieri h: 17:50 sereno Sereno 3 -4 59 1029 10 N 0
Ieri h: 17:20 sereno Sereno 4 -4 55 1028 10 N 0
Ieri h: 16:50 sereno Sereno 5 -4 52 1029 10 N 1.8